TAF VAPR 110500Z 0609/0618 01009KT 6000 NSC
From batch tds/tafs/production/2022/12/6/h08_m59_tafs.cache.xml
Issued (4 days ago)
Forecasts TAF VAPR 110500Z 0609/0618 01009KT 6000 NSC
BECMG 0613/0615 4000 FU
BECMG 0616/0618 05007KT
KCNU 061728Z 0617/0718 35008KT 2SM -RA BR OVC003
From batch tds/tafs/production/2022/12/6/h17_m29_tafs.cache.xml
Issued (28 minutes ago)
Forecasts KCNU 061728Z 0617/0718 35008KT 2SM -RA BR OVC003
FM061900 35008KT 6SM BR OVC009
FM070000 02006KT P6SM OVC014
FM070800 06005KT 3SM BR BKN008
FM071500 09005KT P6SM BKN012
TAF AMD CYBL 061728Z 0617/0704 VRB03KT P6SM SCT008 OVC030
From batch tds/tafs/production/2022/12/6/h17_m29_tafs.cache.xml
Issued (28 minutes ago)
Forecasts TAF AMD CYBL 061728Z 0617/0704 VRB03KT P6SM SCT008 OVC030
TEMPO 0617/0620 BKN008 OVC030
FM062000 VRB03KT P6SM SCT015 OVC030
TEMPO 0620/0704 P6SM -RASN BKN015 OVC030 RMK NXT FCST BY 061900Z
TAF AMD CYRL 061727Z 0617/0702 16005KT P6SM -SN BKN040 OVC080
From batch tds/tafs/production/2022/12/6/h17_m29_tafs.cache.xml
Issued (29 minutes ago)
Forecasts TAF AMD CYRL 061727Z 0617/0702 16005KT P6SM -SN BKN040 OVC080
TEMPO 0617/0622 4SM -SN BKN020 OVC040
FM062200 18005KT P6SM SCT020 BKN040
TEMPO 0622/0702 BKN020
BECMG 0700/0702 28006KT RMK NXT FCST BY 062000Z
TAF AMD CYXL 061727Z 0617/0702 16005KT 2SM -SN OVC020
From batch tds/tafs/production/2022/12/6/h17_m29_tafs.cache.xml
Issued (29 minutes ago)
Forecasts TAF AMD CYXL 061727Z 0617/0702 16005KT 2SM -SN OVC020
TEMPO 0617/0624 P6SM -SN SCT020 OVC040
FM070000 VRB03KT P6SM -SN SCT020 OVC040 RMK NXT FCST BY 062000Z
TAF AMD LSGC 061727Z 0617/0624 VRB02KT 0650 FZFG VV002
From batch tds/tafs/production/2022/12/6/h17_m29_tafs.cache.xml
Issued (29 minutes ago)
Forecasts TAF AMD LSGC 061727Z 0617/0624 VRB02KT 0650 FZFG VV002
TAF AMD CYHI 061727Z 0617/0701 06015G25KT 5SM -SN FEW020 BKN050
From batch tds/tafs/production/2022/12/6/h17_m29_tafs.cache.xml
Issued (29 minutes ago)
Forecasts TAF AMD CYHI 061727Z 0617/0701 06015G25KT 5SM -SN FEW020 BKN050
TEMPO 0617/0619 1SM -SN BLSN BKN020 OVC050
FM061900 06012G22KT 6SM -SN SCT015 BKN040
TEMPO 0619/0622 3SM -SN BLSN BKN015 BKN030
FM062200 09015G25KT P6SM SCT015
TEMPO 0622/0701 3SM BLSN BKN015 RMK NXT FCST BY 061900Z
KINW 061725Z 0617/0718 20010G18KT P6SM SCT030 BKN050
From batch tds/tafs/production/2022/12/6/h17_m29_tafs.cache.xml
Issued (31 minutes ago)
Forecasts KINW 061725Z 0617/0718 20010G18KT P6SM SCT030 BKN050
FM070200 18006KT P6SM SCT030 SCT050 AMD NOT SKED
TAF AMD CYQT 061725Z 0617/0702 VRB03KT P6SM SCT020 BKN110
From batch tds/tafs/production/2022/12/6/h17_m29_tafs.cache.xml
Issued (31 minutes ago)
Forecasts TAF AMD CYQT 061725Z 0617/0702 VRB03KT P6SM SCT020 BKN110
TEMPO 0617/0618 5SM -SN BKN020
FM061800 36008KT 1 1/2SM -SN BKN015 OVC060
TEMPO 0618/0702 P6SM -SN FEW015 BKN025 OVC060 RMK NXT FCST BY 062000Z
TAF AMD YPWR 061723Z 0617/0712 18012KT 9999 SHRA NSC
From batch tds/tafs/production/2022/12/6/h17_m29_tafs.cache.xml
Issued (33 minutes ago)
Forecasts TAF AMD YPWR 061723Z 0617/0712 18012KT 9999 SHRA NSC
BECMG 0620/0622 18018G28KT CAVOK
FM071000 16014KT CAVOK
TAF AMD YSCB 061718Z 0617/0718 VRB03KT CAVOK
From batch tds/tafs/production/2022/12/6/h17_m29_tafs.cache.xml
Issued (38 minutes ago)
Forecasts TAF AMD YSCB 061718Z 0617/0718 VRB03KT CAVOK
FM062200 29012KT CAVOK
FM070100 29015G25KT CAVOK
FM070700 31012KT CAVOK
FM071200 31005KT 9999 FEW020
FM071600 28005KT CAVOK
PROB30 0617/0619 4000 BR NSC
TAF AMD CYRA 061715Z 0617/0701 VRB03KT P6SM FEW080
From batch tds/tafs/production/2022/12/6/h17_m29_tafs.cache.xml
Issued (41 minutes ago)
Forecasts TAF AMD CYRA 061715Z 0617/0701 VRB03KT P6SM FEW080
FM062100 18005KT P6SM FEW010 BKN150 RMK NXT FCST BY 061900Z
TAF AMD CZFA 061713Z 0617/0622 30005KT P6SM SCT008 OVC090
From batch tds/tafs/production/2022/12/6/h17_m29_tafs.cache.xml
Issued (43 minutes ago)
Forecasts TAF AMD CZFA 061713Z 0617/0622 30005KT P6SM SCT008 OVC090
TEMPO 0617/0622 3SM -SHSN BR BKN008 OVC080 RMK NXT FCST BY 061800Z
TAF AMD ESGT 061712Z 0617/0618 VRB03KT 8000 FEW003
From batch tds/tafs/production/2022/12/6/h17_m29_tafs.cache.xml
Issued (44 minutes ago)
Forecasts TAF AMD ESGT 061712Z 0617/0618 VRB03KT 8000 FEW003
PROB40 0617/0618 2000 BR BKN003
TAF AMD EFIV 061711Z 0617/0618 05004KT 9999 -SN OVC004
From batch tds/tafs/production/2022/12/6/h17_m29_tafs.cache.xml
Issued (about 1 hour ago)
Forecasts TAF AMD EFIV 061711Z 0617/0618 05004KT 9999 -SN OVC004
TEMPO 0617/0618 3000 BKN008
TAF AMD CYWJ 061710Z 0617/0624 12005KT P6SM FEW004
From batch tds/tafs/production/2022/12/6/h17_m29_tafs.cache.xml
Issued (about 1 hour ago)
Forecasts TAF AMD CYWJ 061710Z 0617/0624 12005KT P6SM FEW004
TEMPO 0617/0624 3SM IC BKN005 RMK NXT FCST BY 061800Z
TAF AMD CYQA 061709Z 0617/0701 13005KT P6SM SCT020 OVC050
From batch tds/tafs/production/2022/12/6/h17_m29_tafs.cache.xml
Issued (about 1 hour ago)
Forecasts TAF AMD CYQA 061709Z 0617/0701 13005KT P6SM SCT020 OVC050
TEMPO 0617/0620 5SM -RA BR BKN020 OVC050
FM062000 14005KT 6SM -RA BR SCT007 OVC012
TEMPO 0620/0701 2SM -RA BR BKN007 OVC012 RMK FCST BASED ON AUTO OBS. NXT FCST BY 062000Z
TAF AMD CYYB 061708Z 0617/0702 05008KT 3SM -SN OVC004
From batch tds/tafs/production/2022/12/6/h17_m29_tafs.cache.xml
Issued (about 1 hour ago)
Forecasts TAF AMD CYYB 061708Z 0617/0702 05008KT 3SM -SN OVC004
TEMPO 0617/0624 6SM -SN SCT004 OVC010
FM070000 06008KT 6SM -SN OVC015
TEMPO 0700/0702 1 1/2SM -SN VV012 RMK NXT FCST BY 062000Z
TAF AMD CYIK 061708Z 0617/0622 15020G30KT 1/4SM -SN BLSN FEW004 BKN015 BKN030
From batch tds/tafs/production/2022/12/6/h17_m29_tafs.cache.xml
Issued (about 1 hour ago)
Forecasts TAF AMD CYIK 061708Z 0617/0622 15020G30KT 1/4SM -SN BLSN FEW004 BKN015 BKN030
TEMPO 0617/0620 1SM BLSN FEW004 SCT015
FM062000 18018KT 3SM BLSN FEW020 BKN080
TEMPO 0620/0622 1SM -SHSN BKN020 OVC060 RMK NXT FCST BY 071500Z
KMFR 061708Z 0617/0712 00000KT P6SM OVC007
From batch tds/tafs/production/2022/12/6/h17_m29_tafs.cache.xml
Issued (about 1 hour ago)
Forecasts KMFR 061708Z 0617/0712 00000KT P6SM OVC007
FM061900 VRB03KT P6SM SCT007 OVC015
FM062100 VRB03KT P6SM SCT040
FM070800 02001KT 4SM BR OVC009
TAF AMD YBWW 061708Z 0617/0718 23012KT CAVOK
From batch tds/tafs/production/2022/12/6/h17_m29_tafs.cache.xml
Issued (about 1 hour ago)
Forecasts TAF AMD YBWW 061708Z 0617/0718 23012KT CAVOK
FM062100 30010KT CAVOK
FM070600 06010KT CAVOK
PROB40
TEMPO 0707/0718 VRB25G45KT 4000 TSRA SCT050 SCT100CB
TAF COR KVAD 061708Z 0617/0723 16006KT 9999 BKN010 QNH3022INS
From batch tds/tafs/production/2022/12/6/h17_m29_tafs.cache.xml
Issued (about 1 hour ago)
Forecasts TAF COR KVAD 061708Z 0617/0723 16006KT 9999 BKN010 QNH3022INS
TEMPO 0617/0618 OVC007
BECMG 0617/0618 16006KT 9999 BKN020 QNH3021INS
BECMG 0622/0623 16006KT 9999 SCT050 QNH3021INS TX25/0620Z TN15/0711Z
TAF AMD CYHD 061706Z 0617/0702 16005KT 1 1/2SM -SN OVC020
From batch tds/tafs/production/2022/12/6/h17_m29_tafs.cache.xml
Issued (about 1 hour ago)
Forecasts TAF AMD CYHD 061706Z 0617/0702 16005KT 1 1/2SM -SN OVC020
TEMPO 0617/0624 P6SM -SN SCT020 OVC030
BECMG 0618/0620 09005KT
FM070000 03005KT P6SM SCT020 OVC040
BECMG 0700/0702 32005KT RMK FCST BASED ON AUTO OBS. NXT FCST BY 062000Z
KAND 061706Z 0617/0712 05006KT P6SM SCT006 OVC013
From batch tds/tafs/production/2022/12/6/h17_m29_tafs.cache.xml
Issued (about 1 hour ago)
Forecasts KAND 061706Z 0617/0712 05006KT P6SM SCT006 OVC013
TEMPO 0617/0618 2SM -SHRA BR BKN006 OVC013
FM062000 05004KT 2SM BR VCSH OVC003
FM070200 VRB02KT 1SM -RADZ BR OVC002
TAF AMD ESDF 061705Z 0617/0620 01005KT 9999 SCT006 BKN040
From batch tds/tafs/production/2022/12/6/h17_m29_tafs.cache.xml
Issued (about 1 hour ago)
Forecasts TAF AMD ESDF 061705Z 0617/0620 01005KT 9999 SCT006 BKN040
BECMG 0617/0619 BKN006
PROB40 0619/0620 SCT006
TAF AMD KMUI 061703Z 0617/0717 VRB06KT 1600 -RA BR OVC004 QNH3018INS
From batch tds/tafs/production/2022/12/6/h17_m29_tafs.cache.xml
Issued (about 1 hour ago)
Forecasts TAF AMD KMUI 061703Z 0617/0717 VRB06KT 1600 -RA BR OVC004 QNH3018INS
BECMG 0714/0715 VRB06KT 8000 BR OVC025 QNH3018INS TX07/0704Z TN02/0617Z
KGFL 061703Z 0617/0712 00000KT 5SM -RA BKN030 OVC050 WS020/19035KT
From batch tds/tafs/production/2022/12/6/h17_m29_tafs.cache.xml
Issued (about 1 hour ago)
Forecasts KGFL 061703Z 0617/0712 00000KT 5SM -RA BKN030 OVC050 WS020/19035KT
FM062000 VRB04KT 2SM -RA BR OVC005 WS020/17035KT
FM070900 VRB03KT 2SM -RA BR OVC005
TAF AMD CYAW 061703Z 0617/0624 07012KT P6SM BKN014
From batch tds/tafs/production/2022/12/6/h17_m29_tafs.cache.xml
Issued (about 1 hour ago)
Forecasts TAF AMD CYAW 061703Z 0617/0624 07012KT P6SM BKN014
TEMPO 0617/0621 SCT014 BKN240
FM062100 09008KT P6SM OVC010
BECMG 0621/0623 OVC006 RMK NXT FCST BY 061800Z
TAF AMD LFLS 061702Z 0617/0715 36008KT 5000 BR OVC006
From batch tds/tafs/production/2022/12/6/h17_m29_tafs.cache.xml
Issued (about 1 hour ago)
Forecasts TAF AMD LFLS 061702Z 0617/0715 36008KT 5000 BR OVC006
TEMPO 0618/0709 VRB02KT 2500 OVC003
PROB30
TEMPO 0703/0709 -FZDZ
BECMG 0710/0712 8000 NSW OVC012
TAF AMD SOCA 061702Z 0617/0712 09010KT 9999 SCT030 SCT150
From batch tds/tafs/production/2022/12/6/h17_m29_tafs.cache.xml
Issued (about 1 hour ago)
Forecasts TAF AMD SOCA 061702Z 0617/0712 09010KT 9999 SCT030 SCT150
PROB40
TEMPO 0617/0621 2000 SHRA SCT012CB BKN018TCU
PROB40
TEMPO 0617/0618 09015G25KT 1000 TSRA SCT005 BKN010CB
BECMG 0620/0622 VRB02KT
PROB30
TEMPO 0706/0709 3000 BR BKN005
TAF AMD PAED 061702Z 0617/0720 01009KT 9000 -SHSN FEW005 SCT012 OVC050 610509 QNH2952INS
From batch tds/tafs/production/2022/12/6/h17_m29_tafs.cache.xml
Issued (about 1 hour ago)
Forecasts TAF AMD PAED 061702Z 0617/0720 01009KT 9000 -SHSN FEW005 SCT012 OVC050 610509 QNH2952INS
BECMG 0622/0623 35009KT 6000 -SN BR SCT005 OVC010 610109 QNH2945INS
BECMG 0700/0701 35009KT 0800 SN FZFG OVC005 640059 QNH2941INS
BECMG 0708/0709 33009KT 1600 -SN BR BKN005 OVC009 640059 QNH2931INS
BECMG 0717/0718 35009KT 4800 -SN BR BKN005 OVC009 610059 QNH2932INS
BECMG 0719/0720 01009KT 9999 VCSH SCT005 OVC020 620208 QNH2931INS TXM01/0700Z TNM03/0617Z
TAF UMMS 061701Z 0617/0718 15005G10MPS 2100 BR OVC003
From batch tds/tafs/production/2022/12/6/h17_m29_tafs.cache.xml
Issued (about 1 hour ago)
Forecasts TAF UMMS 061701Z 0617/0718 15005G10MPS 2100 BR OVC003
TEMPO 0617/0711 17007G12MPS 0300 -FZDZ -SNRA FZFG OVC001
TEMPO 0711/0718 17009G14MPS 1200 -FZDZ SHSNRA BKN010CB
TAF AMD CYQR 061701Z 0617/0712 VRB03KT P6SM SCT030 BKN050
From batch tds/tafs/production/2022/12/6/h17_m29_tafs.cache.xml
Issued (about 1 hour ago)
Forecasts TAF AMD CYQR 061701Z 0617/0712 VRB03KT P6SM SCT030 BKN050
TEMPO 0617/0619 2SM -SN BR BKN020
BECMG 0617/0619 36008KT
FM070000 36008KT P6SM SKC
FM070600 31010KT P6SM SKC RMK NXT FCST BY 061800Z
TAF KMCF 061700Z 0617/0723 VRB06KT 9999 SCT030 SCT150 QNH3013INS
From batch tds/tafs/production/2022/12/6/h17_m29_tafs.cache.xml
Issued (about 1 hour ago)
Forecasts TAF KMCF 061700Z 0617/0723 VRB06KT 9999 SCT030 SCT150 QNH3013INS
TEMPO 0709/0713 6000 BR BKN040 TX27/0620Z TN17/0712Z
TAF KSVN 061700Z 0617/0723 VRB06KT 9999 SCT025 BKN080 QNH3016INS
From batch tds/tafs/production/2022/12/6/h17_m29_tafs.cache.xml
Issued (about 1 hour ago)
Forecasts TAF KSVN 061700Z 0617/0723 VRB06KT 9999 SCT025 BKN080 QNH3016INS
BECMG 0701/0702 VRB03KT 9999 SCT100 QNH3022INS
BECMG 0704/0705 VRB03KT 9999 MIFG SCT003 BKN100 QNH3022INS
BECMG 0714/0715 VRB06KT 9999 NSW SCT025 BKN035 BKN150 QNH3024INS TX24/0619Z TN15/0710Z
TAF KDYS 061700Z 0617/0723 VRB06KT 9999 BKN080 QNH2991INS
From batch tds/tafs/production/2022/12/6/h17_m29_tafs.cache.xml
Issued (about 1 hour ago)
Forecasts TAF KDYS 061700Z 0617/0723 VRB06KT 9999 BKN080 QNH2991INS
BECMG 0621/0622 VRB06KT 8000 -RA SCT030 BKN060 QNH2994INS
BECMG 0706/0707 21009KT 4800 SHRA BKN012 QNH3000INS
BECMG 0710/0711 VRB06KT 8000 -SHRA BKN008 QNH3008INS
TEMPO 0711/0714 0100 FG OVC000
BECMG 0715/0716 13009KT 9999 NSW BKN010 QNH3010INS
BECMG 0717/0718 14012KT 9999 BKN010 QNH3011INS
BECMG 0719/0720 18009KT 9999 BKN015 QNH3014INS TX22/0618Z TN12/0714Z
TAF KHMN 061700Z 0617/0723 21010G15KT 9999 SCT200 QNH3001INS
From batch tds/tafs/production/2022/12/6/h17_m29_tafs.cache.xml
Issued (about 1 hour ago)
Forecasts TAF KHMN 061700Z 0617/0723 21010G15KT 9999 SCT200 QNH3001INS
BECMG 0620/0621 23010G15KT 9999 FEW080 SCT200 QNH3001INS
BECMG 0700/0701 VRB06KT 9999 FEW070 SCT200 QNH3003INS
BECMG 0714/1715 VRB06KT 9999 BKN060 BKN180 QNH3008INS
TEMPO 0715/0723 9000 -SHRA TX16/0622Z TN05/0713Z
TAF KWRB 061700Z 0617/0723 VRB06KT 9999 BKN010 QNH3016INS
From batch tds/tafs/production/2022/12/6/h17_m29_tafs.cache.xml
Issued (about 1 hour ago)
Forecasts TAF KWRB 061700Z 0617/0723 VRB06KT 9999 BKN010 QNH3016INS
TEMPO 0617/0621 BKN009
BECMG 0620/0621 VRB06KT 9999 BKN035 QNH3018INS
BECMG 0708/0709 VRB03KT 8000 BR SCT035 BKN060 QNH3022INS
BECMG 0711/0712 VRB06KT 4800 BR BKN015 QNH3028INS TX22/0623Z TN17/0711Z
TAF KMIB 061700Z 0617/0723 01009KT 9999 FEW025 BKN035 620353 QNH2995INS
From batch tds/tafs/production/2022/12/6/h17_m29_tafs.cache.xml
Issued (about 1 hour ago)
Forecasts TAF KMIB 061700Z 0617/0723 01009KT 9999 FEW025 BKN035 620353 QNH2995INS
BECMG 0622/0623 VRB06KT 9999 SCT060 QNH3008INS
BECMG 0715/0716 15009KT 9999 FEW060 QNH3012INS
BECMG 0721/0722 18010G15KT 9999 FEW060 QNH3011INS TXM16/0620Z TNM24/0711Z
TAF KRND 061700Z 0617/0723 19009KT 9999 BKN010 OVC015 QNH2993INS
From batch tds/tafs/production/2022/12/6/h17_m29_tafs.cache.xml
Issued (about 1 hour ago)
Forecasts TAF KRND 061700Z 0617/0723 19009KT 9999 BKN010 OVC015 QNH2993INS
BECMG 0618/0619 19009KT 9999 SCT012 BKN020 QNH2991INS
BECMG 0619/0620 18009KT 9999 SCT020 BKN035 QNH2990INS
BECMG 0703/0704 16009KT 8000 BR OVC010 QNH3006INS
TEMPO 0711/0714 1600 -DZ BR BKN005 OVC010
BECMG 0715/0716 18010G15KT 9999 NSW FEW015 BKN030 QNH3005INS TX25/0621Z TN19/0713Z
TAF FJDG 061700Z 0617/0723 VRB06KT 9999 SCT100 BKN200 QNH2986INS
From batch tds/tafs/production/2022/12/6/h17_m29_tafs.cache.xml
Issued (about 1 hour ago)
Forecasts TAF FJDG 061700Z 0617/0723 VRB06KT 9999 SCT100 BKN200 QNH2986INS
TEMPO 0620/0702 VRB15G25KT 3200 -SHRA VCTS FEW015CB BKN040 BKN230 TX30/0708Z TN25/0618Z FOR MIL USE ONLY
TAF KLTS 061700Z 0617/0723 VRB06KT 9999 BKN010 BKN150 510052 QNH2993INS
From batch tds/tafs/production/2022/12/6/h17_m29_tafs.cache.xml
Issued (about 1 hour ago)
Forecasts TAF KLTS 061700Z 0617/0723 VRB06KT 9999 BKN010 BKN150 510052 QNH2993INS
BECMG 0617/0618 36009KT 9999 FEW010 FEW150 510052 QNH2994INS
BECMG 0622/0624 VRB06KT 9999 FEW150 QNH2996INS
BECMG 0704/0706 VRB06KT 9999 FEW010 SCT020 SCT150 510052 QNH3001INS
BECMG 0713/0715 VRB06KT 6000 -RA SCT010 OVC020 QNH3008INS TX17/0621Z TN06/0712Z
TAF OEPS 061700Z 0617/0723 16009KT 9999 FEW080 QNH3010INS
From batch tds/tafs/production/2022/12/6/h16_m59_tafs.cache.xml
Issued (about 1 hour ago)
Forecasts TAF OEPS 061700Z 0617/0723 16009KT 9999 FEW080 QNH3010INS
BECMG 0705/0706 VRB06KT 9999 FEW080 QNH3008INS TX29/0712Z TN18/0703Z
TAF KVOK 061700Z 0617/0723 11006KT 9999 OVC013 QNH3003INS
From batch tds/tafs/production/2022/12/6/h17_m29_tafs.cache.xml
Issued (about 1 hour ago)
Forecasts TAF KVOK 061700Z 0617/0723 11006KT 9999 OVC013 QNH3003INS
BECMG 0618/0619 13009KT 9999 BKN015 620154 QNH2999INS
BECMG 0622/0623 VRB06KT 9999 BKN008 OVC015 620085 QNH3002INS
BECMG 0702/0703 29006KT 9999 BKN020 620203 QNH3008INS
BECMG 0707/0708 34006KT 9999 SCT020 QNH3014INS
BECMG 0714/0715 34006KT 9999 SCT020 BKN030 620302 QNH3028INS TX00/0620Z TNM05/0711Z LAST NO AMDS AFT 0622 NEXT 0709
TAF KGTB 061700Z 0617/0723 16010KT 8000 -SHRA BR SCT005 OVC015 540104 QNH3012INS
From batch tds/tafs/production/2022/12/6/h17_m29_tafs.cache.xml
Issued (about 1 hour ago)
Forecasts TAF KGTB 061700Z 0617/0723 16010KT 8000 -SHRA BR SCT005 OVC015 540104 QNH3012INS
TEMPO 0617/0619 BKN003 OVC010
BECMG 0618/0619 16008KT 9999 VCSH SCT003 BKN012 OVC020 510003 QNH3010INS
BECMG 0700/0701 VRB06KT 9000 -SHRA BKN005 OVC012 510003 QNH3005INS
BECMG 0715/0716 29008KT 6000 SHRA BR OVC005 510003 QNH3010INS TX06/0618Z TN03/0710Z
TAF KADW 061700Z 0617/0723 20004KT 8000 BR SCT003 OVC006 QNH3018INS
From batch tds/tafs/production/2022/12/6/h17_m29_tafs.cache.xml
Issued (about 1 hour ago)
Forecasts TAF KADW 061700Z 0617/0723 20004KT 8000 BR SCT003 OVC006 QNH3018INS
TEMPO 0617/0621 6000 -SHRA BR OVC003
BECMG 0620/0621 20005KT 6000 -SHRA BR OVC003 QNH3017INS
BECMG 0700/0701 20006KT 4800 -SHRA BR OVC003 QNH3015INS
BECMG 0707/0708 20006KT 3200 BR OVC002 QNH3014INS
BECMG 0712/0713 21008KT 4800 BR OVC003 QNH3011INS
BECMG 0715/0716 21008KT 9999 NSW OVC006 QNH3009INS TX13/0716Z TN07/0617Z
TAF AMD UWUU 061659Z 0617/0718 VRB01MPS 2100 BR FEW004 TXM19/0710Z TNM30/0703Z
From batch tds/tafs/production/2022/12/6/h17_m29_tafs.cache.xml
Issued (about 1 hour ago)
Forecasts TAF AMD UWUU 061659Z 0617/0718 VRB01MPS 2100 BR FEW004 TXM19/0710Z TNM30/0703Z
TEMPO 0617/0706 0200 FZFG VV002
FM070600 17003MPS 6000 SCT030
TEMPO 0706/0712 VRB01MPS 2100 BR SCT004
TEMPO 0712/0718 VRB01MPS 0200 FZFG SCT003
KDIK 061658Z 0617/0712 31015KT P6SM BKN060
From batch tds/tafs/production/2022/12/6/h16_m59_tafs.cache.xml
Issued (about 1 hour ago)
Forecasts KDIK 061658Z 0617/0712 31015KT P6SM BKN060
FM070000 02010KT 3SM -SN BR OVC015
FM070600 07010KT 2SM -SN OVC010
FM071000 07010KT P6SM OVC015
TAF AMD KSZL 061658Z 0616/0717 03006KT 9000 -DZ OVC007 QNH2990INS
From batch tds/tafs/production/2022/12/6/h17_m29_tafs.cache.xml
Issued (about 1 hour ago)
Forecasts TAF AMD KSZL 061658Z 0616/0717 03006KT 9000 -DZ OVC007 QNH2990INS
TEMPO 0616/0624 OVC010
BECMG 0706/0707 VRB06KT 9999 NSW OVC010 QNH3015INS TX06/0623Z TN03/0616Z
KBJC 061658Z 0617/0712 28015G25KT P6SM FEW080 FEW120 SCT220
From batch tds/tafs/production/2022/12/6/h16_m59_tafs.cache.xml
Issued (about 1 hour ago)
Forecasts KBJC 061658Z 0617/0712 28015G25KT P6SM FEW080 FEW120 SCT220
FM062000 14008KT P6SM FEW080 SCT120
FM062300 VRB06KT P6SM SCT070 BKN110
FM070500 24005KT P6SM FEW070 SCT120
talk